sensor_id;sensor_type;location;lat;lon;timestamp;P1;durP1;ratioP1;P2;durP2;ratioP2
43311;SDS011;30041;48.300;16.352;2024-03-17T00:02:11;0.77;;;0.10;;
43311;SDS011;30041;48.300;16.352;2024-03-17T00:04:37;0.80;;;0.28;;
43311;SDS011;30041;48.300;16.352;2024-03-17T00:07:03;2.20;;;0.30;;
43311;SDS011;30041;48.300;16.352;2024-03-17T00:09:29;2.50;;;0.30;;
43311;SDS011;30041;48.300;16.352;2024-03-17T00:11:55;1.00;;;0.50;;
43311;SDS011;30041;48.300;16.352;2024-03-17T00:14:21;1.90;;;0.30;;
43311;SDS011;30041;48.300;16.352;2024-03-17T00:16:47;2.40;;;0.40;;
43311;SDS011;30041;48.300;16.352;2024-03-17T00:19:14;1.23;;;0.30;;
43311;SDS011;30041;48.300;16.352;2024-03-17T00:21:41;0.52;;;0.30;;
43311;SDS011;30041;48.300;16.352;2024-03-17T00:24:06;1.13;;;0.40;;
43311;SDS011;30041;48.300;16.352;2024-03-17T00:26:32;1.33;;;0.40;;
43311;SDS011;30041;48.300;16.352;2024-03-17T00:28:58;1.27;;;0.40;;
43311;SDS011;30041;48.300;16.352;2024-03-17T00:31:24;1.05;;;0.30;;
43311;SDS011;30041;48.300;16.352;2024-03-17T00:33:53;0.95;;;0.40;;
43311;SDS011;30041;48.300;16.352;2024-03-17T00:36:19;1.95;;;0.50;;
43311;SDS011;30041;48.300;16.352;2024-03-17T00:38:44;0.35;;;0.20;;
43311;SDS011;30041;48.300;16.352;2024-03-17T00:41:10;1.48;;;0.30;;
43311;SDS011;30041;48.300;16.352;2024-03-17T00:43:36;0.77;;;0.32;;
43311;SDS011;30041;48.300;16.352;2024-03-17T00:46:02;0.50;;;0.30;;
43311;SDS011;30041;48.300;16.352;2024-03-17T00:48:28;0.93;;;0.40;;
43311;SDS011;30041;48.300;16.352;2024-03-17T00:50:57;0.88;;;0.40;;
43311;SDS011;30041;48.300;16.352;2024-03-17T00:53:27;1.23;;;0.40;;
43311;SDS011;30041;48.300;16.352;2024-03-17T00:55:54;1.02;;;0.30;;
43311;SDS011;30041;48.300;16.352;2024-03-17T00:58:20;1.08;;;0.40;;
43311;SDS011;30041;48.300;16.352;2024-03-17T01:00:46;0.68;;;0.40;;
43311;SDS011;30041;48.300;16.352;2024-03-17T01:03:12;0.93;;;0.38;;
43311;SDS011;30041;48.300;16.352;2024-03-17T01:05:38;0.73;;;0.45;;
43311;SDS011;30041;48.300;16.352;2024-03-17T01:08:04;0.20;;;0.20;;
43311;SDS011;30041;48.300;16.352;2024-03-17T01:10:30;0.93;;;0.40;;
43311;SDS011;30041;48.300;16.352;2024-03-17T01:12:56;0.85;;;0.30;;
43311;SDS011;30041;48.300;16.352;2024-03-17T01:15:22;0.65;;;0.43;;
43311;SDS011;30041;48.300;16.352;2024-03-17T01:17:48;0.57;;;0.40;;
43311;SDS011;30041;48.300;16.352;2024-03-17T01:20:14;0.40;;;0.40;;
43311;SDS011;30041;48.300;16.352;2024-03-17T01:22:40;0.43;;;0.43;;
43311;SDS011;30041;48.300;16.352;2024-03-17T01:25:06;0.90;;;0.50;;
43311;SDS011;30041;48.300;16.352;2024-03-17T01:27:32;0.73;;;0.55;;
43311;SDS011;30041;48.300;16.352;2024-03-17T01:29:58;0.63;;;0.30;;
43311;SDS011;30041;48.300;16.352;2024-03-17T01:32:24;0.77;;;0.50;;
43311;SDS011;30041;48.300;16.352;2024-03-17T01:34:50;1.38;;;0.65;;
43311;SDS011;30041;48.300;16.352;2024-03-17T01:37:15;0.98;;;0.70;;
43311;SDS011;30041;48.300;16.352;2024-03-17T01:39:41;1.02;;;0.60;;
43311;SDS011;30041;48.300;16.352;2024-03-17T01:42:07;0.85;;;0.55;;
43311;SDS011;30041;48.300;16.352;2024-03-17T01:44:33;0.73;;;0.52;;
43311;SDS011;30041;48.300;16.352;2024-03-17T01:46:59;1.08;;;0.60;;
43311;SDS011;30041;48.300;16.352;2024-03-17T01:49:25;0.90;;;0.60;;
43311;SDS011;30041;48.300;16.352;2024-03-17T01:51:52;0.68;;;0.50;;
43311;SDS011;30041;48.300;16.352;2024-03-17T01:54:19;1.60;;;0.80;;
43311;SDS011;30041;48.300;16.352;2024-03-17T01:56:46;1.17;;;0.70;;
43311;SDS011;30041;48.300;16.352;2024-03-17T01:59:13;1.40;;;0.80;;
43311;SDS011;30041;48.300;16.352;2024-03-17T02:01:39;1.17;;;0.77;;
43311;SDS011;30041;48.300;16.352;2024-03-17T02:04:05;0.88;;;0.70;;
43311;SDS011;30041;48.300;16.352;2024-03-17T02:06:31;2.05;;;0.80;;
43311;SDS011;30041;48.300;16.352;2024-03-17T02:08:57;1.20;;;0.77;;
43311;SDS011;30041;48.300;16.352;2024-03-17T02:11:24;1.75;;;0.95;;
43311;SDS011;30041;48.300;16.352;2024-03-17T02:13:54;2.08;;;0.80;;
43311;SDS011;30041;48.300;16.352;2024-03-17T02:16:21;2.00;;;1.00;;
43311;SDS011;30041;48.300;16.352;2024-03-17T02:18:47;1.77;;;1.00;;
43311;SDS011;30041;48.300;16.352;2024-03-17T02:21:13;1.40;;;0.77;;
43311;SDS011;30041;48.300;16.352;2024-03-17T02:23:41;1.55;;;0.80;;
43311;SDS011;30041;48.300;16.352;2024-03-17T02:26:08;1.60;;;0.90;;
43311;SDS011;30041;48.300;16.352;2024-03-17T02:28:41;1.92;;;0.90;;
43311;SDS011;30041;48.300;16.352;2024-03-17T02:31:09;1.80;;;0.80;;
43311;SDS011;30041;48.300;16.352;2024-03-17T02:33:36;1.73;;;1.13;;
43311;SDS011;30041;48.300;16.352;2024-03-17T02:36:02;2.28;;;1.10;;
43311;SDS011;30041;48.300;16.352;2024-03-17T02:38:28;2.20;;;1.10;;
43311;SDS011;30041;48.300;16.352;2024-03-17T02:40:54;3.25;;;1.05;;
43311;SDS011;30041;48.300;16.352;2024-03-17T02:43:21;3.25;;;1.05;;
43311;SDS011;30041;48.300;16.352;2024-03-17T02:45:46;2.20;;;1.00;;
43311;SDS011;30041;48.300;16.352;2024-03-17T02:48:12;1.80;;;0.80;;
43311;SDS011;30041;48.300;16.352;2024-03-17T02:50:38;1.90;;;1.02;;
43311;SDS011;30041;48.300;16.352;2024-03-17T02:53:04;2.53;;;1.20;;
43311;SDS011;30041;48.300;16.352;2024-03-17T02:55:30;2.13;;;1.00;;
43311;SDS011;30041;48.300;16.352;2024-03-17T02:57:56;2.03;;;1.10;;
43311;SDS011;30041;48.300;16.352;2024-03-17T03:00:21;1.45;;;0.90;;
43311;SDS011;30041;48.300;16.352;2024-03-17T03:02:47;2.20;;;1.15;;
43311;SDS011;30041;48.300;16.352;2024-03-17T03:05:13;2.90;;;1.20;;
43311;SDS011;30041;48.300;16.352;2024-03-17T03:07:39;3.13;;;1.13;;
43311;SDS011;30041;48.300;16.352;2024-03-17T03:10:05;2.03;;;1.10;;
43311;SDS011;30041;48.300;16.352;2024-03-17T03:12:31;3.85;;;1.38;;
43311;SDS011;30041;48.300;16.352;2024-03-17T03:14:58;2.28;;;1.25;;
43311;SDS011;30041;48.300;16.352;2024-03-17T03:17:24;2.15;;;1.13;;
43311;SDS011;30041;48.300;16.352;2024-03-17T03:19:50;2.00;;;1.10;;
43311;SDS011;30041;48.300;16.352;2024-03-17T03:22:15;4.22;;;1.40;;
43311;SDS011;30041;48.300;16.352;2024-03-17T03:24:41;2.08;;;1.00;;
43311;SDS011;30041;48.300;16.352;2024-03-17T03:27:07;2.92;;;1.00;;
43311;SDS011;30041;48.300;16.352;2024-03-17T03:29:33;1.88;;;1.15;;
43311;SDS011;30041;48.300;16.352;2024-03-17T03:31:59;3.03;;;1.27;;
43311;SDS011;30041;48.300;16.352;2024-03-17T03:34:25;1.85;;;1.10;;
43311;SDS011;30041;48.300;16.352;2024-03-17T03:36:51;2.97;;;1.25;;
43311;SDS011;30041;48.300;16.352;2024-03-17T03:39:17;2.53;;;1.50;;
43311;SDS011;30041;48.300;16.352;2024-03-17T03:41:43;2.25;;;1.10;;
43311;SDS011;30041;48.300;16.352;2024-03-17T03:44:09;1.70;;;0.90;;
43311;SDS011;30041;48.300;16.352;2024-03-17T03:46:34;2.30;;;1.13;;
43311;SDS011;30041;48.300;16.352;2024-03-17T03:49:00;3.65;;;1.33;;
43311;SDS011;30041;48.300;16.352;2024-03-17T03:51:26;2.55;;;1.33;;
43311;SDS011;30041;48.300;16.352;2024-03-17T03:53:52;1.98;;;1.00;;
43311;SDS011;30041;48.300;16.352;2024-03-17T03:56:18;1.98;;;1.10;;
43311;SDS011;30041;48.300;16.352;2024-03-17T03:59:08;2.58;;;1.00;;
43311;SDS011;30041;48.300;16.352;2024-03-17T04:01:34;3.45;;;1.30;;
43311;SDS011;30041;48.300;16.352;2024-03-17T04:04:00;2.72;;;1.30;;
43311;SDS011;30041;48.300;16.352;2024-03-17T04:06:26;2.10;;;1.20;;
43311;SDS011;30041;48.300;16.352;2024-03-17T04:08:52;3.33;;;1.35;;
43311;SDS011;30041;48.300;16.352;2024-03-17T04:11:18;4.13;;;1.40;;
43311;SDS011;30041;48.300;16.352;2024-03-17T04:13:44;1.88;;;1.10;;
43311;SDS011;30041;48.300;16.352;2024-03-17T04:16:10;2.40;;;1.17;;
43311;SDS011;30041;48.300;16.352;2024-03-17T04:18:36;3.08;;;1.30;;
43311;SDS011;30041;48.300;16.352;2024-03-17T04:21:02;2.90;;;1.17;;
43311;SDS011;30041;48.300;16.352;2024-03-17T04:23:30;3.17;;;1.27;;
43311;SDS011;30041;48.300;16.352;2024-03-17T04:25:56;3.65;;;1.30;;
43311;SDS011;30041;48.300;16.352;2024-03-17T04:28:22;2.97;;;1.35;;
43311;SDS011;30041;48.300;16.352;2024-03-17T04:30:48;2.42;;;1.10;;
43311;SDS011;30041;48.300;16.352;2024-03-17T04:33:14;3.17;;;1.40;;
43311;SDS011;30041;48.300;16.352;2024-03-17T04:35:40;2.28;;;1.15;;
43311;SDS011;30041;48.300;16.352;2024-03-17T04:38:06;3.42;;;1.30;;
43311;SDS011;30041;48.300;16.352;2024-03-17T04:40:39;3.28;;;1.55;;
43311;SDS011;30041;48.300;16.352;2024-03-17T04:43:06;2.55;;;1.10;;
43311;SDS011;30041;48.300;16.352;2024-03-17T04:45:32;2.05;;;1.13;;
43311;SDS011;30041;48.300;16.352;2024-03-17T04:47:58;2.55;;;1.35;;
43311;SDS011;30041;48.300;16.352;2024-03-17T04:50:24;2.85;;;1.48;;
43311;SDS011;30041;48.300;16.352;2024-03-17T04:52:50;2.10;;;1.10;;
43311;SDS011;30041;48.300;16.352;2024-03-17T04:55:15;4.78;;;1.48;;
43311;SDS011;30041;48.300;16.352;2024-03-17T04:57:42;2.45;;;1.10;;
43311;SDS011;30041;48.300;16.352;2024-03-17T05:00:09;5.22;;;1.35;;
43311;SDS011;30041;48.300;16.352;2024-03-17T05:02:35;4.43;;;1.15;;
43311;SDS011;30041;48.300;16.352;2024-03-17T05:05:01;2.63;;;1.20;;
43311;SDS011;30041;48.300;16.352;2024-03-17T05:07:27;6.00;;;1.30;;
43311;SDS011;30041;48.300;16.352;2024-03-17T05:09:52;3.67;;;1.02;;
43311;SDS011;30041;48.300;16.352;2024-03-17T05:12:18;2.85;;;1.05;;
43311;SDS011;30041;48.300;16.352;2024-03-17T05:14:44;4.30;;;1.15;;
43311;SDS011;30041;48.300;16.352;2024-03-17T05:17:10;5.25;;;1.08;;
43311;SDS011;30041;48.300;16.352;2024-03-17T05:19:36;4.90;;;1.00;;
43311;SDS011;30041;48.300;16.352;2024-03-17T05:22:02;2.80;;;1.00;;
43311;SDS011;30041;48.300;16.352;2024-03-17T05:24:28;2.33;;;1.02;;
43311;SDS011;30041;48.300;16.352;2024-03-17T05:26:54;3.50;;;1.00;;
43311;SDS011;30041;48.300;16.352;2024-03-17T05:29:20;1.25;;;0.80;;
43311;SDS011;30041;48.300;16.352;2024-03-17T05:31:46;3.67;;;1.10;;
43311;SDS011;30041;48.300;16.352;2024-03-17T05:34:12;4.03;;;0.90;;
43311;SDS011;30041;48.300;16.352;2024-03-17T05:36:38;2.78;;;0.98;;
43311;SDS011;30041;48.300;16.352;2024-03-17T05:39:04;1.85;;;0.75;;
43311;SDS011;30041;48.300;16.352;2024-03-17T05:41:30;2.85;;;0.90;;
43311;SDS011;30041;48.300;16.352;2024-03-17T05:43:56;3.25;;;1.30;;
43311;SDS011;30041;48.300;16.352;2024-03-17T05:46:22;7.63;;;2.00;;
43311;SDS011;30041;48.300;16.352;2024-03-17T05:48:48;3.60;;;1.30;;
43311;SDS011;30041;48.300;16.352;2024-03-17T05:51:14;9.52;;;1.60;;
43311;SDS011;30041;48.300;16.352;2024-03-17T05:53:40;5.95;;;1.40;;
43311;SDS011;30041;48.300;16.352;2024-03-17T05:56:06;4.35;;;1.38;;
43311;SDS011;30041;48.300;16.352;2024-03-17T05:58:33;5.60;;;1.33;;
43311;SDS011;30041;48.300;16.352;2024-03-17T06:01:01;6.55;;;1.20;;
43311;SDS011;30041;48.300;16.352;2024-03-17T06:03:27;4.93;;;1.20;;
43311;SDS011;30041;48.300;16.352;2024-03-17T06:05:53;6.25;;;1.27;;
43311;SDS011;30041;48.300;16.352;2024-03-17T06:08:19;5.05;;;1.45;;
43311;SDS011;30041;48.300;16.352;2024-03-17T06:10:48;5.75;;;1.48;;
43311;SDS011;30041;48.300;16.352;2024-03-17T06:13:14;4.55;;;1.33;;
43311;SDS011;30041;48.300;16.352;2024-03-17T06:15:41;6.88;;;1.55;;
43311;SDS011;30041;48.300;16.352;2024-03-17T06:18:09;5.68;;;1.27;;
43311;SDS011;30041;48.300;16.352;2024-03-17T06:20:41;4.57;;;1.40;;
43311;SDS011;30041;48.300;16.352;2024-03-17T06:23:07;6.63;;;1.23;;
43311;SDS011;30041;48.300;16.352;2024-03-17T06:25:46;5.57;;;1.30;;
43311;SDS011;30041;48.300;16.352;2024-03-17T06:28:16;4.40;;;1.15;;
43311;SDS011;30041;48.300;16.352;2024-03-17T06:30:46;4.05;;;1.48;;
43311;SDS011;30041;48.300;16.352;2024-03-17T06:33:19;9.45;;;1.35;;
43311;SDS011;30041;48.300;16.352;2024-03-17T06:35:46;3.80;;;1.30;;
43311;SDS011;30041;48.300;16.352;2024-03-17T06:38:12;3.63;;;1.10;;
43311;SDS011;30041;48.300;16.352;2024-03-17T06:40:39;4.45;;;1.35;;
43311;SDS011;30041;48.300;16.352;2024-03-17T06:43:05;4.32;;;1.25;;
43311;SDS011;30041;48.300;16.352;2024-03-17T06:45:31;3.65;;;1.10;;
43311;SDS011;30041;48.300;16.352;2024-03-17T06:47:58;4.60;;;1.35;;
43311;SDS011;30041;48.300;16.352;2024-03-17T06:50:24;2.95;;;0.90;;
43311;SDS011;30041;48.300;16.352;2024-03-17T06:52:50;2.47;;;0.85;;
43311;SDS011;30041;48.300;16.352;2024-03-17T06:55:16;1.58;;;0.90;;
43311;SDS011;30041;48.300;16.352;2024-03-17T06:57:42;3.90;;;1.02;;
43311;SDS011;30041;48.300;16.352;2024-03-17T07:00:08;4.43;;;0.95;;
43311;SDS011;30041;48.300;16.352;2024-03-17T07:02:34;4.43;;;1.00;;
43311;SDS011;30041;48.300;16.352;2024-03-17T07:05:00;2.78;;;0.88;;
43311;SDS011;30041;48.300;16.352;2024-03-17T07:07:26;2.22;;;0.80;;
43311;SDS011;30041;48.300;16.352;2024-03-17T07:09:52;2.60;;;1.00;;
43311;SDS011;30041;48.300;16.352;2024-03-17T07:12:18;3.75;;;1.00;;
43311;SDS011;30041;48.300;16.352;2024-03-17T07:14:44;1.80;;;0.90;;
43311;SDS011;30041;48.300;16.352;2024-03-17T07:17:10;1.58;;;0.82;;
43311;SDS011;30041;48.300;16.352;2024-03-17T07:19:36;2.80;;;1.02;;
43311;SDS011;30041;48.300;16.352;2024-03-17T07:22:02;2.33;;;1.00;;
43311;SDS011;30041;48.300;16.352;2024-03-17T07:24:28;5.50;;;1.02;;
43311;SDS011;30041;48.300;16.352;2024-03-17T07:26:54;6.60;;;1.00;;
43311;SDS011;30041;48.300;16.352;2024-03-17T07:29:20;5.18;;;1.02;;
43311;SDS011;30041;48.300;16.352;2024-03-17T07:31:47;6.90;;;1.00;;
43311;SDS011;30041;48.300;16.352;2024-03-17T07:34:13;5.22;;;1.23;;
43311;SDS011;30041;48.300;16.352;2024-03-17T07:36:39;4.70;;;1.10;;
43311;SDS011;30041;48.300;16.352;2024-03-17T07:39:05;4.07;;;1.10;;
43311;SDS011;30041;48.300;16.352;2024-03-17T07:41:31;5.18;;;1.27;;
43311;SDS011;30041;48.300;16.352;2024-03-17T07:43:56;3.00;;;1.10;;
43311;SDS011;30041;48.300;16.352;2024-03-17T07:46:22;6.72;;;1.20;;
43311;SDS011;30041;48.300;16.352;2024-03-17T07:48:48;2.38;;;0.85;;
43311;SDS011;30041;48.300;16.352;2024-03-17T07:51:15;3.28;;;1.10;;
43311;SDS011;30041;48.300;16.352;2024-03-17T07:53:42;3.58;;;0.95;;
43311;SDS011;30041;48.300;16.352;2024-03-17T07:56:10;1.40;;;1.00;;
43311;SDS011;30041;48.300;16.352;2024-03-17T07:58:39;3.17;;;0.95;;
43311;SDS011;30041;48.300;16.352;2024-03-17T08:01:07;3.17;;;1.02;;
43311;SDS011;30041;48.300;16.352;2024-03-17T08:03:40;3.15;;;0.95;;
43311;SDS011;30041;48.300;16.352;2024-03-17T08:06:07;3.72;;;1.13;;
43311;SDS011;30041;48.300;16.352;2024-03-17T08:08:34;2.08;;;0.90;;
43311;SDS011;30041;48.300;16.352;2024-03-17T08:11:00;2.33;;;0.70;;
43311;SDS011;30041;48.300;16.352;2024-03-17T08:13:26;4.68;;;0.90;;
43311;SDS011;30041;48.300;16.352;2024-03-17T08:15:56;3.45;;;0.90;;
43311;SDS011;30041;48.300;16.352;2024-03-17T08:18:23;2.38;;;0.80;;
43311;SDS011;30041;48.300;16.352;2024-03-17T08:20:50;3.30;;;1.10;;
43311;SDS011;30041;48.300;16.352;2024-03-17T08:23:15;3.00;;;0.90;;
43311;SDS011;30041;48.300;16.352;2024-03-17T08:25:42;2.10;;;0.90;;
43311;SDS011;30041;48.300;16.352;2024-03-17T08:28:08;3.08;;;0.65;;
43311;SDS011;30041;48.300;16.352;2024-03-17T08:30:34;1.88;;;0.80;;
43311;SDS011;30041;48.300;16.352;2024-03-17T08:33:00;2.35;;;0.88;;
43311;SDS011;30041;48.300;16.352;2024-03-17T08:35:26;1.52;;;0.70;;
43311;SDS011;30041;48.300;16.352;2024-03-17T08:37:52;2.40;;;0.80;;
43311;SDS011;30041;48.300;16.352;2024-03-17T08:40:18;0.68;;;0.55;;
43311;SDS011;30041;48.300;16.352;2024-03-17T08:42:44;2.38;;;0.95;;
43311;SDS011;30041;48.300;16.352;2024-03-17T08:45:11;3.60;;;1.00;;
43311;SDS011;30041;48.300;16.352;2024-03-17T08:47:37;1.98;;;0.90;;
43311;SDS011;30041;48.300;16.352;2024-03-17T08:50:02;1.50;;;0.80;;
43311;SDS011;30041;48.300;16.352;2024-03-17T08:52:29;1.90;;;0.88;;
43311;SDS011;30041;48.300;16.352;2024-03-17T08:54:55;3.03;;;0.90;;
43311;SDS011;30041;48.300;16.352;2024-03-17T08:57:22;1.48;;;0.75;;
43311;SDS011;30041;48.300;16.352;2024-03-17T08:59:48;1.50;;;0.70;;
43311;SDS011;30041;48.300;16.352;2024-03-17T09:02:14;1.80;;;0.80;;
43311;SDS011;30041;48.300;16.352;2024-03-17T09:04:40;1.63;;;0.63;;
43311;SDS011;30041;48.300;16.352;2024-03-17T09:07:06;1.30;;;0.70;;
43311;SDS011;30041;48.300;16.352;2024-03-17T09:09:33;1.45;;;0.75;;
43311;SDS011;30041;48.300;16.352;2024-03-17T09:11:59;1.98;;;0.63;;
43311;SDS011;30041;48.300;16.352;2024-03-17T09:14:25;0.93;;;0.70;;
43311;SDS011;30041;48.300;16.352;2024-03-17T09:16:51;1.30;;;0.80;;
43311;SDS011;30041;48.300;16.352;2024-03-17T09:19:17;1.40;;;0.75;;
43311;SDS011;30041;48.300;16.352;2024-03-17T09:21:42;1.00;;;0.70;;
43311;SDS011;30041;48.300;16.352;2024-03-17T09:24:08;1.40;;;0.70;;
43311;SDS011;30041;48.300;16.352;2024-03-17T09:26:34;1.42;;;0.90;;
43311;SDS011;30041;48.300;16.352;2024-03-17T09:29:01;2.30;;;0.70;;
43311;SDS011;30041;48.300;16.352;2024-03-17T09:31:27;1.90;;;0.70;;
43311;SDS011;30041;48.300;16.352;2024-03-17T09:33:53;1.52;;;0.70;;
43311;SDS011;30041;48.300;16.352;2024-03-17T09:36:19;2.67;;;0.77;;
43311;SDS011;30041;48.300;16.352;2024-03-17T09:38:45;0.65;;;0.50;;
43311;SDS011;30041;48.300;16.352;2024-03-17T09:41:16;1.05;;;0.68;;
43311;SDS011;30041;48.300;16.352;2024-03-17T09:43:46;4.70;;;0.80;;
43311;SDS011;30041;48.300;16.352;2024-03-17T09:46:12;1.73;;;0.73;;
43311;SDS011;30041;48.300;16.352;2024-03-17T09:48:40;1.92;;;0.80;;
43311;SDS011;30041;48.300;16.352;2024-03-17T09:51:06;1.70;;;0.70;;
43311;SDS011;30041;48.300;16.352;2024-03-17T09:53:34;1.08;;;0.70;;
43311;SDS011;30041;48.300;16.352;2024-03-17T09:56:10;1.10;;;0.63;;
43311;SDS011;30041;48.300;16.352;2024-03-17T09:58:37;1.50;;;0.70;;
43311;SDS011;30041;48.300;16.352;2024-03-17T10:01:03;1.48;;;0.77;;
43311;SDS011;30041;48.300;16.352;2024-03-17T10:03:43;1.65;;;0.80;;
43311;SDS011;30041;48.300;16.352;2024-03-17T10:06:13;1.95;;;0.80;;
43311;SDS011;30041;48.300;16.352;2024-03-17T10:11:14;1.42;;;0.70;;
43311;SDS011;30041;48.300;16.352;2024-03-17T10:13:45;1.75;;;0.90;;
43311;SDS011;30041;48.300;16.352;2024-03-17T10:16:31;1.52;;;0.63;;
43311;SDS011;30041;48.300;16.352;2024-03-17T10:19:08;4.77;;;0.87;;
43311;SDS011;30041;48.300;16.352;2024-03-17T10:21:36;3.47;;;0.60;;
43311;SDS011;30041;48.300;16.352;2024-03-17T10:24:10;3.72;;;1.00;;
43311;SDS011;30041;48.300;16.352;2024-03-17T10:26:46;4.03;;;0.88;;
43311;SDS011;30041;48.300;16.352;2024-03-17T10:29:28;3.60;;;0.80;;
43311;SDS011;30041;48.300;16.352;2024-03-17T10:32:19;3.33;;;0.90;;
43311;SDS011;30041;48.300;16.352;2024-03-17T10:34:45;2.72;;;0.90;;
43311;SDS011;30041;48.300;16.352;2024-03-17T10:37:14;3.55;;;0.80;;
43311;SDS011;30041;48.300;16.352;2024-03-17T10:39:42;3.17;;;0.80;;
43311;SDS011;30041;48.300;16.352;2024-03-17T10:42:09;3.55;;;0.80;;
43311;SDS011;30041;48.300;16.352;2024-03-17T10:44:37;1.27;;;0.88;;
43311;SDS011;30041;48.300;16.352;2024-03-17T10:47:05;2.08;;;1.40;;
43311;SDS011;30041;48.300;16.352;2024-03-17T10:49:32;2.95;;;1.70;;
43311;SDS011;30041;48.300;16.352;2024-03-17T10:52:03;4.00;;;2.45;;
43311;SDS011;30041;48.300;16.352;2024-03-17T10:54:40;3.80;;;2.95;;
43311;SDS011;30041;48.300;16.352;2024-03-17T10:59:48;5.15;;;2.83;;
43311;SDS011;30041;48.300;16.352;2024-03-17T11:04:39;6.40;;;3.08;;
43311;SDS011;30041;48.300;16.352;2024-03-17T11:07:05;4.55;;;2.60;;
43311;SDS011;30041;48.300;16.352;2024-03-17T11:09:41;6.38;;;2.97;;
43311;SDS011;30041;48.300;16.352;2024-03-17T11:12:36;5.63;;;3.15;;
43311;SDS011;30041;48.300;16.352;2024-03-17T11:17:49;6.38;;;2.97;;
43311;SDS011;30041;48.300;16.352;2024-03-17T11:20:26;6.07;;;2.88;;
43311;SDS011;30041;48.300;16.352;2024-03-17T11:22:58;7.57;;;2.97;;
43311;SDS011;30041;48.300;16.352;2024-03-17T11:27:53;5.95;;;2.40;;
43311;SDS011;30041;48.300;16.352;2024-03-17T11:38:56;4.20;;;1.77;;
43311;SDS011;30041;48.300;16.352;2024-03-17T11:41:36;3.17;;;1.70;;
43311;SDS011;30041;48.300;16.352;2024-03-17T11:49:33;4.13;;;1.80;;
43311;SDS011;30041;48.300;16.352;2024-03-17T11:52:01;3.63;;;1.55;;
43311;SDS011;30041;48.300;16.352;2024-03-17T11:54:29;2.70;;;1.42;;
43311;SDS011;30041;48.300;16.352;2024-03-17T11:57:06;3.20;;;1.60;;
43311;SDS011;30041;48.300;16.352;2024-03-17T11:59:54;5.57;;;1.48;;
43311;SDS011;30041;48.300;16.352;2024-03-17T12:02:25;3.20;;;1.45;;
43311;SDS011;30041;48.300;16.352;2024-03-17T12:04:52;2.25;;;1.25;;
43311;SDS011;30041;48.300;16.352;2024-03-17T12:07:20;3.35;;;1.60;;
43311;SDS011;30041;48.300;16.352;2024-03-17T12:09:47;4.60;;;1.25;;
43311;SDS011;30041;48.300;16.352;2024-03-17T12:12:23;1.70;;;1.00;;
43311;SDS011;30041;48.300;16.352;2024-03-17T12:14:50;3.03;;;1.40;;
43311;SDS011;30041;48.300;16.352;2024-03-17T12:17:20;3.90;;;1.40;;
43311;SDS011;30041;48.300;16.352;2024-03-17T12:19:48;2.38;;;1.23;;
43311;SDS011;30041;48.300;16.352;2024-03-17T12:22:17;4.38;;;1.23;;
43311;SDS011;30041;48.300;16.352;2024-03-17T12:24:44;4.50;;;1.38;;
43311;SDS011;30041;48.300;16.352;2024-03-17T12:27:13;4.78;;;1.38;;
43311;SDS011;30041;48.300;16.352;2024-03-17T12:29:43;3.00;;;1.48;;
43311;SDS011;30041;48.300;16.352;2024-03-17T12:34:51;5.43;;;1.73;;
43311;SDS011;30041;48.300;16.352;2024-03-17T12:37:22;6.15;;;1.30;;
43311;SDS011;30041;48.300;16.352;2024-03-17T12:39:49;3.47;;;1.20;;
43311;SDS011;30041;48.300;16.352;2024-03-17T12:42:20;4.15;;;1.40;;
43311;SDS011;30041;48.300;16.352;2024-03-17T12:44:50;3.83;;;1.50;;
43311;SDS011;30041;48.300;16.352;2024-03-17T12:47:17;5.68;;;1.48;;
43311;SDS011;30041;48.300;16.352;2024-03-17T12:49:47;7.55;;;1.70;;
43311;SDS011;30041;48.300;16.352;2024-03-17T12:52:21;6.40;;;1.45;;
43311;SDS011;30041;48.300;16.352;2024-03-17T12:55:01;3.03;;;1.10;;
43311;SDS011;30041;48.300;16.352;2024-03-17T12:57:29;5.88;;;1.23;;
43311;SDS011;30041;48.300;16.352;2024-03-17T12:59:55;7.30;;;1.65;;
43311;SDS011;30041;48.300;16.352;2024-03-17T13:02:21;3.72;;;1.35;;
43311;SDS011;30041;48.300;16.352;2024-03-17T13:04:47;4.65;;;1.30;;
43311;SDS011;30041;48.300;16.352;2024-03-17T13:07:13;5.03;;;1.38;;
43311;SDS011;30041;48.300;16.352;2024-03-17T13:09:39;6.60;;;1.63;;
43311;SDS011;30041;48.300;16.352;2024-03-17T13:12:12;4.72;;;1.40;;
43311;SDS011;30041;48.300;16.352;2024-03-17T13:14:40;2.83;;;1.30;;
43311;SDS011;30041;48.300;16.352;2024-03-17T13:17:06;2.55;;;0.95;;
43311;SDS011;30041;48.300;16.352;2024-03-17T13:19:40;3.20;;;1.20;;
43311;SDS011;30041;48.300;16.352;2024-03-17T13:22:06;2.85;;;1.10;;
43311;SDS011;30041;48.300;16.352;2024-03-17T13:24:32;3.30;;;1.15;;
43311;SDS011;30041;48.300;16.352;2024-03-17T13:26:58;3.35;;;1.10;;
43311;SDS011;30041;48.300;16.352;2024-03-17T13:29:24;2.15;;;1.13;;
43311;SDS011;30041;48.300;16.352;2024-03-17T13:31:50;3.78;;;1.05;;
43311;SDS011;30041;48.300;16.352;2024-03-17T13:34:16;1.55;;;0.90;;
43311;SDS011;30041;48.300;16.352;2024-03-17T13:36:41;2.55;;;1.17;;
43311;SDS011;30041;48.300;16.352;2024-03-17T13:39:07;2.15;;;1.10;;
43311;SDS011;30041;48.300;16.352;2024-03-17T13:41:33;2.72;;;1.23;;
43311;SDS011;30041;48.300;16.352;2024-03-17T13:43:59;2.65;;;1.08;;
43311;SDS011;30041;48.300;16.352;2024-03-17T13:46:24;2.97;;;1.20;;
43311;SDS011;30041;48.300;16.352;2024-03-17T13:48:50;2.95;;;0.85;;
43311;SDS011;30041;48.300;16.352;2024-03-17T13:51:23;2.60;;;1.00;;
43311;SDS011;30041;48.300;16.352;2024-03-17T13:53:48;2.30;;;0.90;;
43311;SDS011;30041;48.300;16.352;2024-03-17T13:56:14;3.63;;;1.10;;
43311;SDS011;30041;48.300;16.352;2024-03-17T13:58:40;4.53;;;1.20;;
43311;SDS011;30041;48.300;16.352;2024-03-17T14:01:07;4.28;;;0.98;;
43311;SDS011;30041;48.300;16.352;2024-03-17T14:03:33;4.13;;;0.88;;
43311;SDS011;30041;48.300;16.352;2024-03-17T14:05:59;1.88;;;1.00;;
43311;SDS011;30041;48.300;16.352;2024-03-17T14:08:25;15.93;;;1.70;;
43311;SDS011;30041;48.300;16.352;2024-03-17T14:10:51;4.47;;;1.13;;
43311;SDS011;30041;48.300;16.352;2024-03-17T14:13:17;16.27;;;2.42;;
43311;SDS011;30041;48.300;16.352;2024-03-17T14:15:43;13.45;;;1.88;;
43311;SDS011;30041;48.300;16.352;2024-03-17T14:18:09;11.68;;;2.03;;
43311;SDS011;30041;48.300;16.352;2024-03-17T14:20:35;9.55;;;1.50;;
43311;SDS011;30041;48.300;16.352;2024-03-17T14:23:01;9.25;;;1.65;;
43311;SDS011;30041;48.300;16.352;2024-03-17T14:25:27;10.48;;;1.98;;
43311;SDS011;30041;48.300;16.352;2024-03-17T14:27:53;6.40;;;1.30;;
43311;SDS011;30041;48.300;16.352;2024-03-17T14:30:19;5.32;;;1.15;;
43311;SDS011;30041;48.300;16.352;2024-03-17T14:32:46;5.32;;;1.10;;
43311;SDS011;30041;48.300;16.352;2024-03-17T14:35:14;6.20;;;1.38;;
43311;SDS011;30041;48.300;16.352;2024-03-17T14:37:44;3.92;;;1.10;;
43311;SDS011;30041;48.300;16.352;2024-03-17T14:40:11;5.70;;;1.02;;
43311;SDS011;30041;48.300;16.352;2024-03-17T14:42:37;5.40;;;1.05;;
43311;SDS011;30041;48.300;16.352;2024-03-17T14:45:03;4.95;;;1.08;;
43311;SDS011;30041;48.300;16.352;2024-03-17T14:47:30;3.13;;;1.00;;
43311;SDS011;30041;48.300;16.352;2024-03-17T14:49:56;6.55;;;1.30;;
43311;SDS011;30041;48.300;16.352;2024-03-17T14:52:23;4.80;;;1.02;;
43311;SDS011;30041;48.300;16.352;2024-03-17T14:54:49;4.68;;;1.00;;
43311;SDS011;30041;48.300;16.352;2024-03-17T14:57:16;3.88;;;0.98;;
43311;SDS011;30041;48.300;16.352;2024-03-17T14:59:42;5.55;;;1.00;;
43311;SDS011;30041;48.300;16.352;2024-03-17T15:02:08;4.55;;;1.00;;
43311;SDS011;30041;48.300;16.352;2024-03-17T15:04:34;3.83;;;0.80;;